createdAt,value
2018-08-23T00:00:46.912Z,99.90
2018-08-23T00:03:21.105Z,99.90
2018-08-23T00:05:52.245Z,99.90
2018-08-23T00:08:21.724Z,99.90
2018-08-23T00:10:51.443Z,99.90
2018-08-23T00:13:20.720Z,99.90
2018-08-23T00:15:49.764Z,99.90
2018-08-23T00:18:18.794Z,99.90
2018-08-23T00:20:47.897Z,99.90
2018-08-23T00:23:16.841Z,99.90
2018-08-23T00:25:45.839Z,99.90
2018-08-23T00:28:15.117Z,99.90
2018-08-23T00:30:44.476Z,99.90
2018-08-23T00:33:13.428Z,99.90
2018-08-23T00:35:42.420Z,99.90
2018-08-23T00:38:11.386Z,99.90
2018-08-23T00:40:44.649Z,99.90
2018-08-23T00:43:14.844Z,99.90
2018-08-23T00:45:47.110Z,99.90
2018-08-23T00:48:15.988Z,99.90
2018-08-23T00:50:48.625Z,99.90
2018-08-23T00:53:17.871Z,99.90
2018-08-23T00:55:46.961Z,99.90
2018-08-23T00:58:15.860Z,99.90
2018-08-23T01:00:49.098Z,99.90
2018-08-23T01:03:18.538Z,99.90
2018-08-23T01:05:47.502Z,99.90
2018-08-23T01:08:21.002Z,99.90
2018-08-23T01:10:49.900Z,99.90
2018-08-23T01:13:18.840Z,99.90
2018-08-23T01:15:49.523Z,99.90
2018-08-23T01:18:19.796Z,99.90
2018-08-23T01:20:50.423Z,99.90
2018-08-23T01:23:19.416Z,99.90
2018-08-23T01:25:49.419Z,99.90
2018-08-23T01:28:18.429Z,99.90
2018-08-23T01:30:48.300Z,99.90
2018-08-23T01:33:18.838Z,99.90
2018-08-23T01:35:48.952Z,99.90
2018-08-23T01:38:18.296Z,99.90
2018-08-23T01:40:47.370Z,99.90
2018-08-23T01:43:16.359Z,99.90
2018-08-23T01:45:45.376Z,99.90
2018-08-23T01:48:14.403Z,99.90
2018-08-23T01:50:43.732Z,99.90
2018-08-23T01:53:13.184Z,99.90
2018-08-23T01:55:42.243Z,99.90
2018-08-23T01:58:11.354Z,99.90
2018-08-23T02:00:40.434Z,99.90
2018-08-23T02:03:09.792Z,99.90
2018-08-23T02:05:43.289Z,99.90
2018-08-23T02:08:12.600Z,99.90
2018-08-23T02:10:41.663Z,99.90
2018-08-23T02:13:16.217Z,99.90
2018-08-23T02:15:51.354Z,99.90
2018-08-23T02:18:22.487Z,99.90
2018-08-23T02:21:00.066Z,99.90
2018-08-23T02:23:30.059Z,99.90
2018-08-23T02:26:00.628Z,99.90
2018-08-23T02:28:31.188Z,99.90
2018-08-23T02:31:01.227Z,99.90
2018-08-23T02:33:30.430Z,99.90
2018-08-23T02:36:22.495Z,99.90
2018-08-23T02:39:09.408Z,99.90
2018-08-23T02:41:41.484Z,99.90
2018-08-23T02:44:10.366Z,99.90
2018-08-23T02:46:39.325Z,99.90
2018-08-23T02:49:08.514Z,99.90
2018-08-23T02:51:53.888Z,99.90
2018-08-23T02:54:22.812Z,99.90
2018-08-23T02:56:57.918Z,99.90
2018-08-23T02:59:27.732Z,99.90
2018-08-23T03:01:56.936Z,99.90
2018-08-23T03:04:28.114Z,99.90
2018-08-23T03:07:01.027Z,99.90
2018-08-23T03:09:31.419Z,99.90
2018-08-23T03:12:01.816Z,99.90
2018-08-23T03:14:31.285Z,99.90
2018-08-23T03:17:20.784Z,99.90
2018-08-23T03:20:14.090Z,99.90
2018-08-23T03:22:45.045Z,99.90
2018-08-23T03:25:16.147Z,99.90
2018-08-23T03:27:45.195Z,99.90
2018-08-23T03:30:15.339Z,99.90
2018-08-23T03:32:44.308Z,99.90
2018-08-23T03:35:14.208Z,99.90
2018-08-23T03:37:43.126Z,99.90
2018-08-23T03:40:13.121Z,99.90
2018-08-23T03:42:42.380Z,99.90
2018-08-23T03:45:16.543Z,99.90
2018-08-23T03:47:53.060Z,99.90
2018-08-23T03:50:22.162Z,99.90
2018-08-23T03:52:52.535Z,99.90
2018-08-23T03:55:23.963Z,99.90
2018-08-23T03:58:07.617Z,99.90
2018-08-23T04:00:51.258Z,99.90
2018-08-23T04:03:20.780Z,99.90
2018-08-23T04:05:50.360Z,99.90
2018-08-23T04:08:19.704Z,99.90
2018-08-23T04:10:49.872Z,99.90
2018-08-23T04:13:19.424Z,99.90
2018-08-23T04:15:48.843Z,99.90
2018-08-23T04:18:18.198Z,99.90
2018-08-23T04:21:55.311Z,99.90
2018-08-23T04:24:25.257Z,99.90
2018-08-23T04:26:54.285Z,99.90
2018-08-23T04:29:34.007Z,99.90
2018-08-23T04:32:04.410Z,99.90
2018-08-23T04:34:37.756Z,99.90
2018-08-23T04:37:06.877Z,99.90
2018-08-23T04:39:36.077Z,99.90
2018-08-23T04:42:05.397Z,99.90
2018-08-23T04:44:42.980Z,99.90
2018-08-23T04:47:13.429Z,99.90
2018-08-23T04:49:42.730Z,99.90
2018-08-23T04:52:12.500Z,99.90
2018-08-23T04:54:41.612Z,99.90
2018-08-23T04:57:10.617Z,99.90
2018-08-23T04:59:40.432Z,99.90
2018-08-23T05:02:09.528Z,99.90
2018-08-23T05:04:39.941Z,99.90
2018-08-23T05:07:08.924Z,99.90
2018-08-23T05:09:38.085Z,99.90
2018-08-23T05:12:07.092Z,99.90
2018-08-23T05:14:37.091Z,99.90
2018-08-23T05:17:06.253Z,99.90
2018-08-23T05:19:35.396Z,99.90
2018-08-23T05:22:04.507Z,99.90
2018-08-23T05:24:34.382Z,99.90
2018-08-23T05:27:05.334Z,99.90
2018-08-23T05:29:34.356Z,99.90
2018-08-23T05:32:03.333Z,99.90
2018-08-23T05:34:32.425Z,99.90
2018-08-23T05:37:01.567Z,99.90
2018-08-23T05:39:41.343Z,99.90
2018-08-23T05:42:10.312Z,99.90
2018-08-23T05:44:41.810Z,99.90
2018-08-23T05:47:10.873Z,99.90
2018-08-23T05:49:41.674Z,99.90
2018-08-23T05:52:11.387Z,99.90
2018-08-23T05:54:40.503Z,99.90
2018-08-23T05:57:09.549Z,99.90
2018-08-23T05:59:38.578Z,99.90
2018-08-23T06:02:07.670Z,99.90
2018-08-23T06:04:42.404Z,99.90
2018-08-23T06:07:12.273Z,99.90
2018-08-23T06:09:43.488Z,99.90
2018-08-23T06:12:12.686Z,99.90
2018-08-23T06:14:41.774Z,99.90
2018-08-23T06:17:10.731Z,99.90
2018-08-23T06:19:40.388Z,99.90
2018-08-23T06:22:10.480Z,99.90
2018-08-23T06:24:39.517Z,99.90
2018-08-23T06:27:08.953Z,99.90
2018-08-23T06:29:38.956Z,99.90
2018-08-23T06:32:09.078Z,99.90
2018-08-23T06:34:51.401Z,99.90
2018-08-23T06:37:23.139Z,99.90
2018-08-23T06:39:52.424Z,99.90
2018-08-23T06:42:26.265Z,99.90
2018-08-23T06:44:56.006Z,99.90
2018-08-23T06:47:26.710Z,99.90
2018-08-23T06:49:56.855Z,99.90
2018-08-23T06:52:37.242Z,99.90
2018-08-23T06:55:07.077Z,99.90
2018-08-23T06:57:44.853Z,99.90
2018-08-23T07:00:21.504Z,99.90
2018-08-23T07:02:53.855Z,99.90
2018-08-23T07:05:29.289Z,99.90
2018-08-23T07:08:03.008Z,99.90
2018-08-23T07:10:38.235Z,99.90
2018-08-23T07:13:11.063Z,99.90
2018-08-23T07:15:46.002Z,99.90
2018-08-23T07:18:20.788Z,99.90
2018-08-23T07:20:50.316Z,99.90
2018-08-23T07:23:30.248Z,99.90
2018-08-23T07:26:00.567Z,99.90
2018-08-23T07:28:30.091Z,99.90
2018-08-23T07:30:59.446Z,99.90
2018-08-23T07:33:29.002Z,99.90
2018-08-23T07:36:09.298Z,99.90
2018-08-23T07:38:39.283Z,99.90
2018-08-23T07:41:08.380Z,99.90
2018-08-23T07:43:37.604Z,99.90
2018-08-23T07:46:07.753Z,99.90
2018-08-23T07:48:36.820Z,99.90
2018-08-23T07:51:13.818Z,99.90
2018-08-23T07:53:43.036Z,99.90
2018-08-23T07:56:26.670Z,99.90
2018-08-23T07:58:56.716Z,99.90
2018-08-23T08:01:27.492Z,99.90
2018-08-23T08:03:57.456Z,99.90
2018-08-23T08:06:28.530Z,99.90
2018-08-23T08:08:59.165Z,99.90
2018-08-23T08:11:33.172Z,99.90
2018-08-23T08:14:12.637Z,99.90
2018-08-23T08:16:41.622Z,99.90
2018-08-23T08:19:10.895Z,99.90
2018-08-23T08:21:39.873Z,99.90
2018-08-23T08:24:09.433Z,99.90
2018-08-23T08:26:38.620Z,99.90
2018-08-23T08:29:07.677Z,98.90
2018-08-23T08:31:36.700Z,97.60
2018-08-23T08:34:05.750Z,99.80
2018-08-23T08:36:34.766Z,96.70
2018-08-23T08:39:04.971Z,96.90
2018-08-23T08:41:36.674Z,97.50
2018-08-23T08:44:05.715Z,95.60
2018-08-23T08:46:34.832Z,95.70
2018-08-23T08:49:03.877Z,92.90
2018-08-23T08:51:33.453Z,92.60
2018-08-23T08:54:04.105Z,92.30
2018-08-23T08:56:41.420Z,96.00
2018-08-23T08:59:10.360Z,93.20
2018-08-23T09:01:39.388Z,91.90
2018-08-23T09:04:08.507Z,92.40
2018-08-23T09:06:45.809Z,91.00
2018-08-23T09:09:28.169Z,91.30
2018-08-23T09:11:59.071Z,92.10
2018-08-23T09:14:28.049Z,91.10
2018-08-23T09:16:57.285Z,90.20
2018-08-23T09:19:37.107Z,89.60
2018-08-23T09:22:11.383Z,91.00
2018-08-23T09:24:40.769Z,89.10
2018-08-23T09:27:17.877Z,84.20
2018-08-23T09:29:46.823Z,86.10
2018-08-23T09:32:21.430Z,87.20
2018-08-23T09:34:54.523Z,83.60
2018-08-23T09:37:23.481Z,86.20
2018-08-23T09:39:52.427Z,84.90
2018-08-23T09:42:21.353Z,83.30
2018-08-23T09:45:01.536Z,81.40
2018-08-23T09:47:32.032Z,80.80
2018-08-23T09:50:01.018Z,80.50
2018-08-23T09:52:31.435Z,81.80
2018-08-23T09:55:00.386Z,80.90
2018-08-23T09:57:29.304Z,80.50
2018-08-23T09:59:58.201Z,80.40
2018-08-23T10:02:32.405Z,81.60
2018-08-23T10:05:04.387Z,79.20
2018-08-23T10:07:38.504Z,76.40
2018-08-23T10:10:12.704Z,75.90
2018-08-23T10:12:46.741Z,76.50
2018-08-23T10:15:20.880Z,76.70
2018-08-23T10:17:54.828Z,78.50
2018-08-23T10:20:29.004Z,77.20
2018-08-23T10:23:03.399Z,75.00
2018-08-23T10:26:40.240Z,75.60
2018-08-23T10:29:09.303Z,75.40
2018-08-23T10:31:38.326Z,75.60
2018-08-23T10:34:07.404Z,76.90
2018-08-23T10:36:36.447Z,77.20
2018-08-23T10:39:09.937Z,75.30
2018-08-23T10:41:39.222Z,74.80
2018-08-23T10:44:08.383Z,76.00
2018-08-23T10:46:42.613Z,77.10
2018-08-23T10:49:11.740Z,76.60
2018-08-23T10:51:41.025Z,75.50
2018-08-23T10:54:10.731Z,73.10
2018-08-23T10:56:39.792Z,73.80
2018-08-23T10:59:09.570Z,72.40
2018-08-23T11:01:39.530Z,74.80
2018-08-23T11:04:09.933Z,75.10
2018-08-23T11:06:44.113Z,73.40
2018-08-23T11:09:18.107Z,74.10
2018-08-23T11:11:47.137Z,72.90
2018-08-23T11:14:21.356Z,72.80
2018-08-23T11:16:56.227Z,72.70
2018-08-23T11:19:30.350Z,72.00
2018-08-23T11:21:59.424Z,72.90
2018-08-23T11:24:28.427Z,74.30
2018-08-23T11:26:57.400Z,77.40
2018-08-23T11:29:27.624Z,75.40
2018-08-23T11:31:56.675Z,74.50
2018-08-23T11:34:26.223Z,74.70
2018-08-23T11:36:55.741Z,74.50
2018-08-23T11:39:24.711Z,75.60
2018-08-23T11:41:53.746Z,74.70
2018-08-23T11:44:22.790Z,75.10
2018-08-23T11:46:51.880Z,76.20
2018-08-23T11:49:21.515Z,74.70
2018-08-23T11:51:50.696Z,75.50
2018-08-23T11:54:23.446Z,76.40
2018-08-23T11:56:54.797Z,74.30
2018-08-23T11:59:23.956Z,76.10
2018-08-23T12:01:53.017Z,77.60
2018-08-23T12:04:21.983Z,73.40
2018-08-23T12:06:55.229Z,74.60
2018-08-23T12:09:30.056Z,75.10
2018-08-23T12:12:00.737Z,75.90
2018-08-23T12:14:30.911Z,75.00
2018-08-23T12:17:00.374Z,75.50
2018-08-23T12:19:29.639Z,76.30
2018-08-23T12:21:59.026Z,77.10
2018-08-23T12:24:32.029Z,75.30
2018-08-23T12:27:01.212Z,73.30
2018-08-23T12:29:30.395Z,73.40
2018-08-23T12:31:59.471Z,76.20
2018-08-23T12:34:38.134Z,74.90
2018-08-23T12:37:13.198Z,75.50
2018-08-23T12:39:47.497Z,81.00
2018-08-23T12:42:22.240Z,82.20
2018-08-23T12:44:54.200Z,82.60
2018-08-23T12:47:25.105Z,82.50
2018-08-23T12:49:58.987Z,80.60
2018-08-23T12:52:28.733Z,76.20
2018-08-23T12:54:57.757Z,77.30
2018-08-23T12:57:27.126Z,77.40
2018-08-23T12:59:56.164Z,76.40
2018-08-23T13:02:25.340Z,75.30
2018-08-23T13:04:54.593Z,75.00
2018-08-23T13:07:23.586Z,75.20
2018-08-23T13:09:52.916Z,73.40
2018-08-23T13:12:21.931Z,73.70
2018-08-23T13:14:51.654Z,67.80
2018-08-23T13:17:21.641Z,69.20
2018-08-23T13:19:50.869Z,72.70
2018-08-23T13:22:25.763Z,74.90
2018-08-23T13:25:00.136Z,73.50
2018-08-23T13:27:32.055Z,69.00
2018-08-23T13:30:01.927Z,68.00
2018-08-23T13:32:30.973Z,66.70
2018-08-23T13:35:00.640Z,65.90
2018-08-23T13:37:30.286Z,66.10
2018-08-23T13:39:59.356Z,67.60
2018-08-23T13:42:28.346Z,67.10
2018-08-23T13:44:58.044Z,65.40
2018-08-23T13:47:27.020Z,67.30
2018-08-23T13:49:56.048Z,68.10
2018-08-23T13:52:24.992Z,64.70
2018-08-23T13:54:55.200Z,66.10
2018-08-23T13:57:25.172Z,64.60
2018-08-23T13:59:54.306Z,64.20
2018-08-23T14:02:23.253Z,66.50
2018-08-23T14:04:56.124Z,67.80
2018-08-23T14:07:25.169Z,69.80
2018-08-23T14:09:54.076Z,71.00
2018-08-23T14:12:23.054Z,69.60
2018-08-23T14:15:02.361Z,68.70
2018-08-23T14:17:37.874Z,69.20
2018-08-23T14:20:07.492Z,71.80
2018-08-23T14:22:37.120Z,72.60
2018-08-23T14:25:07.512Z,70.00
2018-08-23T14:27:37.769Z,70.00
2018-08-23T14:30:07.437Z,68.40
2018-08-23T14:32:36.473Z,69.50
2018-08-23T14:35:08.649Z,70.60
2018-08-23T14:37:39.218Z,70.60
2018-08-23T14:40:08.738Z,69.70
2018-08-23T14:42:37.963Z,67.40
2018-08-23T14:45:08.832Z,65.10
2018-08-23T14:47:42.994Z,62.00
2018-08-23T14:50:12.302Z,60.80
2018-08-23T14:52:41.412Z,63.20
2018-08-23T14:55:10.757Z,65.00
2018-08-23T14:57:39.727Z,67.80
2018-08-23T15:00:09.092Z,69.40
2018-08-23T15:02:38.474Z,70.10
2018-08-23T15:05:07.473Z,72.40
2018-08-23T15:07:36.429Z,73.80
2018-08-23T15:10:05.492Z,74.50
2018-08-23T15:12:34.568Z,76.10
2018-08-23T15:15:03.888Z,77.00
2018-08-23T15:17:32.794Z,78.10
2018-08-23T15:20:01.756Z,79.20
2018-08-23T15:22:32.045Z,79.10
2018-08-23T15:25:01.081Z,81.40
2018-08-23T15:27:34.565Z,81.50
2018-08-23T15:30:05.005Z,80.60
2018-08-23T15:32:34.140Z,78.50
2018-08-23T15:35:03.308Z,78.50
2018-08-23T15:37:34.044Z,78.40
2018-08-23T15:40:03.043Z,76.80
2018-08-23T15:42:32.676Z,78.70
2018-08-23T15:45:01.762Z,80.40
2018-08-23T15:47:32.298Z,81.20
2018-08-23T15:50:02.153Z,81.50
2018-08-23T15:52:31.129Z,82.90
2018-08-23T15:55:01.418Z,84.00
2018-08-23T15:57:30.927Z,85.80
2018-08-23T16:00:00.353Z,85.30
2018-08-23T16:02:34.148Z,85.40
2018-08-23T16:05:03.269Z,82.40
2018-08-23T16:07:32.348Z,84.30
2018-08-23T16:10:04.695Z,85.00
2018-08-23T16:12:33.840Z,85.70
2018-08-23T16:15:11.567Z,88.30
2018-08-23T16:17:46.418Z,89.10
2018-08-23T16:20:20.541Z,90.00
2018-08-23T16:22:55.856Z,90.70
2018-08-23T16:25:24.900Z,90.80
2018-08-23T16:27:53.885Z,91.70
2018-08-23T16:30:22.894Z,91.90
2018-08-23T16:32:52.835Z,91.90
2018-08-23T16:35:23.374Z,92.00
2018-08-23T16:37:53.308Z,92.60
2018-08-23T16:40:27.393Z,92.90
2018-08-23T16:42:56.734Z,94.10
2018-08-23T16:45:25.843Z,94.70
2018-08-23T16:47:59.776Z,95.60
2018-08-23T16:50:30.699Z,96.00
2018-08-23T16:53:00.044Z,97.40
2018-08-23T16:55:32.074Z,99.90
2018-08-23T16:58:02.136Z,99.90
2018-08-23T17:00:31.229Z,99.90
2018-08-23T17:03:00.305Z,99.90
2018-08-23T17:05:29.304Z,99.90
2018-08-23T17:07:58.330Z,99.90
2018-08-23T17:10:28.589Z,99.90
2018-08-23T17:12:58.016Z,99.90
2018-08-23T17:15:32.623Z,99.90
2018-08-23T17:18:01.924Z,99.90
2018-08-23T17:20:33.497Z,99.90
2018-08-23T17:23:04.266Z,99.90
2018-08-23T17:25:34.687Z,99.90
2018-08-23T17:28:03.784Z,99.90
2018-08-23T17:30:33.972Z,99.90
2018-08-23T17:33:02.931Z,99.90
2018-08-23T17:35:32.413Z,99.90
2018-08-23T17:38:01.719Z,99.90
2018-08-23T17:40:32.947Z,99.90
2018-08-23T17:43:03.092Z,99.90
2018-08-23T17:45:32.336Z,99.90
2018-08-23T17:48:01.318Z,99.90
2018-08-23T17:50:30.423Z,99.90
2018-08-23T17:52:59.641Z,99.90
2018-08-23T17:55:30.942Z,99.90
2018-08-23T17:58:02.870Z,99.90
2018-08-23T18:00:35.484Z,99.90
2018-08-23T18:03:04.547Z,99.90
2018-08-23T18:05:35.942Z,99.90
2018-08-23T18:08:05.180Z,99.90
2018-08-23T18:10:34.446Z,99.90
2018-08-23T18:13:04.643Z,99.90
2018-08-23T18:15:38.552Z,99.90
2018-08-23T18:18:12.051Z,99.90
2018-08-23T18:20:42.948Z,99.90
2018-08-23T18:23:11.925Z,99.90
2018-08-23T18:25:46.947Z,99.90
2018-08-23T18:28:20.161Z,99.90
2018-08-23T18:30:55.864Z,99.90
2018-08-23T18:33:26.982Z,99.90
2018-08-23T18:35:56.025Z,99.90
2018-08-23T18:38:26.064Z,99.90
2018-08-23T18:40:59.232Z,99.90
2018-08-23T18:43:28.462Z,99.90
2018-08-23T18:45:57.460Z,99.90
2018-08-23T18:48:26.591Z,99.90
2018-08-23T18:50:56.396Z,99.90
2018-08-23T18:53:25.352Z,99.90
2018-08-23T18:55:54.351Z,99.90
2018-08-23T18:58:23.504Z,99.90
2018-08-23T19:00:52.390Z,99.40
2018-08-23T19:03:21.474Z,96.30
2018-08-23T19:05:50.754Z,93.50
2018-08-23T19:08:19.628Z,92.70
2018-08-23T19:10:48.641Z,92.00
2018-08-23T19:13:17.760Z,90.70
2018-08-23T19:15:52.039Z,88.70
2018-08-23T19:18:21.172Z,89.80
2018-08-23T19:20:50.233Z,90.30
2018-08-23T19:23:19.384Z,90.10
2018-08-23T19:25:49.677Z,90.20
2018-08-23T19:28:18.588Z,90.40
2018-08-23T19:30:47.660Z,90.80
2018-08-23T19:33:17.448Z,90.70
2018-08-23T19:35:46.374Z,90.90
2018-08-23T19:38:16.131Z,91.50
2018-08-23T19:40:45.093Z,91.70
2018-08-23T19:43:14.133Z,92.10
2018-08-23T19:45:48.434Z,91.90
2018-08-23T19:48:17.506Z,91.40
2018-08-23T19:50:46.581Z,91.50
2018-08-23T19:53:15.568Z,92.00
2018-08-23T19:55:44.583Z,91.90
2018-08-23T19:58:13.602Z,91.50
2018-08-23T20:00:42.847Z,91.20
2018-08-23T20:03:11.796Z,91.20
2018-08-23T20:05:41.152Z,91.20
2018-08-23T20:08:10.148Z,90.90
2018-08-23T20:10:39.249Z,90.40
2018-08-23T20:13:08.314Z,90.30
2018-08-23T20:15:37.245Z,90.30
2018-08-23T20:18:06.616Z,90.40
2018-08-23T20:20:35.710Z,90.50
2018-08-23T20:23:05.183Z,90.80
2018-08-23T20:25:34.273Z,90.90
2018-08-23T20:28:03.540Z,91.20
2018-08-23T20:30:32.649Z,92.10
2018-08-23T20:33:02.328Z,92.30
2018-08-23T20:35:31.492Z,92.30
2018-08-23T20:38:01.115Z,92.30
2018-08-23T20:40:30.345Z,92.10
2018-08-23T20:42:59.985Z,92.20
2018-08-23T20:45:29.596Z,92.40
2018-08-23T20:47:58.598Z,92.60
2018-08-23T20:50:27.642Z,92.70
2018-08-23T20:52:56.561Z,92.60
2018-08-23T20:55:25.540Z,92.30
2018-08-23T20:57:54.509Z,92.40
2018-08-23T21:00:23.567Z,92.10
2018-08-23T21:02:52.575Z,92.10
2018-08-23T21:05:21.842Z,91.80
2018-08-23T21:07:50.872Z,91.90
2018-08-23T21:10:20.625Z,91.60
2018-08-23T21:12:49.660Z,91.40
2018-08-23T21:15:19.478Z,90.90
2018-08-23T21:17:49.206Z,90.50
2018-08-23T21:20:18.388Z,90.20
2018-08-23T21:22:48.270Z,90.10
2018-08-23T21:25:17.390Z,89.50
2018-08-23T21:27:46.521Z,89.80
2018-08-23T21:30:15.558Z,89.50
2018-08-23T21:32:44.554Z,88.70
2018-08-23T21:35:13.813Z,88.00
2018-08-23T21:37:42.831Z,88.30
2018-08-23T21:40:12.152Z,88.60
2018-08-23T21:42:43.071Z,88.10
2018-08-23T21:45:12.262Z,87.80
2018-08-23T21:47:41.581Z,87.80
2018-08-23T21:50:10.576Z,87.20
2018-08-23T21:52:41.598Z,87.50
2018-08-23T21:58:02.988Z,87.80
2018-08-23T22:00:38.028Z,88.60
2018-08-23T22:03:07.760Z,88.90
2018-08-23T22:05:36.825Z,88.80
2018-08-23T22:08:05.947Z,88.90
2018-08-23T22:10:34.873Z,88.30
2018-08-23T22:13:03.916Z,88.20
2018-08-23T22:15:35.363Z,87.90
2018-08-23T22:18:04.422Z,87.70
2018-08-23T22:20:33.444Z,88.10
2018-08-23T22:23:04.105Z,88.60
2018-08-23T22:25:36.458Z,89.20
2018-08-23T22:28:05.971Z,90.00
2018-08-23T22:30:37.054Z,90.30
2018-08-23T22:33:06.367Z,90.90
2018-08-23T22:35:35.370Z,91.60
2018-08-23T22:38:04.822Z,92.00
2018-08-23T22:40:34.468Z,92.60
2018-08-23T22:43:04.553Z,92.90
2018-08-23T22:45:33.607Z,93.50
2018-08-23T22:48:03.656Z,94.10
2018-08-23T22:50:33.644Z,94.40
2018-08-23T22:53:03.845Z,95.00
2018-08-23T22:55:34.942Z,95.20
2018-08-23T22:58:04.090Z,95.60
2018-08-23T23:00:38.315Z,95.90
2018-08-23T23:04:10.689Z,96.30
2018-08-23T23:06:40.164Z,96.50
2018-08-23T23:09:13.091Z,97.00
2018-08-23T23:11:42.635Z,97.00
2018-08-23T23:14:12.500Z,97.00
2018-08-23T23:16:41.990Z,97.10
2018-08-23T23:19:13.201Z,97.30
2018-08-23T23:21:43.236Z,97.40
2018-08-23T23:24:17.374Z,97.40
2018-08-23T23:26:46.569Z,97.50
2018-08-23T23:29:15.783Z,97.80
2018-08-23T23:31:45.282Z,97.90
2018-08-23T23:34:14.336Z,98.20
2018-08-23T23:36:45.450Z,98.20
2018-08-23T23:39:14.881Z,98.40
2018-08-23T23:41:51.280Z,98.60
2018-08-23T23:44:21.860Z,98.50
2018-08-23T23:46:56.363Z,98.20
2018-08-23T23:49:29.401Z,98.40
2018-08-23T23:51:58.417Z,98.50
2018-08-23T23:54:27.516Z,98.80
2018-08-23T23:56:56.878Z,99.20
2018-08-23T23:59:26.248Z,99.60
